Terminal Aerodrome Forecast
Issued by NWS

Home | Current Version | Previous Version | Text Only | Print | Product List | Glossary On
Versions: 1 2 3 4 5 6 7 8 9 10 11 12 13 14 15 16
000
FTUS43 KFGF 111137
TAFBJI
TAF
KBJI 111137Z 1112/1212 08008KT P6SM OVC060
     FM111500 09005KT 1 1/2SM -SN BKN035
     FM111700 08006KT P6SM BKN035
      TEMPO 1117/1120 1SM -SN OVC003
     FM112100 04004KT P6SM BKN010
     FM121000 24004KT P6SM BKN035=

USA.gov is the U.S. government's official web portal to all federal, state and local government web resources and services.